Time;durP1;ratioP1;P1;durP2;ratioP2;P2;SDS_P1;SDS_P2;PMS_P1;PMS_P2;Temp;Humidity;BMP_temperature;BMP_pressure;BME280_temperature;BME280_humidity;BME280_pressure;Samples;Min_cycle;Max_cycle;Signal;HPM_P1;HPM_P2
2021/08/24 00:01:12;;;;;;;0.80;0.80;;;18.30;99.90;;;;;;5050730;28;20279;-71
2021/08/24 00:03:38;;;;;;;1.03;1.00;;;18.20;99.90;;;;;;5051098;28;20256;-71
2021/08/24 00:06:06;;;;;;;0.80;0.80;;;18.30;99.90;;;;;;5050463;28;20206;-71
2021/08/24 00:08:34;;;;;;;4.03;1.10;;;18.40;99.90;;;;;;5050286;28;20518;-71
2021/08/24 00:11:01;;;;;;;1.70;1.20;;;18.40;99.90;;;;;;5047871;28;20221;-71
2021/08/24 00:13:28;;;;;;;2.97;1.30;;;18.40;99.90;;;;;;5049958;28;20227;-71
2021/08/24 00:15:58;;;;;;;1.00;0.80;;;18.50;99.90;;;;;;5049984;28;20205;-71
2021/08/24 00:18:24;;;;;;;1.70;0.80;;;18.50;99.90;;;;;;5049340;28;20240;-71
2021/08/24 00:20:53;;;;;;;1.20;1.10;;;18.40;99.90;;;;;;5049696;28;20208;-71
2021/08/24 00:23:23;;;;;;;1.83;0.90;;;18.40;99.90;;;;;;5049146;28;20230;-71
2021/08/24 00:25:51;;;;;;;0.87;0.70;;;18.40;99.90;;;;;;5046374;28;20203;-71
2021/08/24 00:28:18;;;;;;;1.57;0.90;;;18.40;99.90;;;;;;5048687;28;20201;-71
2021/08/24 00:30:46;;;;;;;1.93;1.60;;;18.40;99.90;;;;;;5049306;28;20198;-71
2021/08/24 00:33:15;;;;;;;2.63;1.27;;;18.40;99.90;;;;;;5047482;28;20225;-71
2021/08/24 00:35:44;;;;;;;1.87;0.97;;;18.30;99.90;;;;;;5048261;28;20198;-71
2021/08/24 00:38:13;;;;;;;0.80;0.80;;;18.30;99.90;;;;;;5047830;28;20201;-71
2021/08/24 00:40:41;;;;;;;1.00;1.00;;;18.30;99.90;;;;;;5048536;28;20781;-71
2021/08/24 00:43:09;;;;;;;0.80;0.80;;;18.30;99.90;;;;;;5047751;28;20566;-71
2021/08/24 00:45:39;;;;;;;1.83;1.20;;;18.30;99.90;;;;;;5049864;28;20273;-71
2021/08/24 00:48:07;;;;;;;2.23;1.10;;;18.30;99.90;;;;;;5049282;28;20282;-71
2021/08/24 00:50:38;;;;;;;1.53;0.90;;;18.40;99.90;;;;;;5049709;28;20267;-71
2021/08/24 00:53:10;;;;;;;1.63;1.30;;;18.30;99.90;;;;;;5049191;28;20223;-71
2021/08/24 00:55:41;;;;;;;2.13;1.20;;;18.30;99.90;;;;;;5053955;28;20227;-71
2021/08/24 00:58:11;;;;;;;2.70;1.00;;;18.30;99.90;;;;;;5050989;28;20317;-71
2021/08/24 01:00:39;;;;;;;1.57;1.00;;;18.30;99.90;;;;;;5048864;28;20203;-71
2021/08/24 01:03:09;;;;;;;1.90;1.00;;;18.40;99.90;;;;;;5048086;28;20224;-71
2021/08/24 01:05:38;;;;;;;2.63;1.20;;;18.40;99.90;;;;;;5049915;28;20190;-71
2021/08/24 01:08:09;;;;;;;2.40;0.97;;;18.30;99.90;;;;;;5047141;28;20288;-71
2021/08/24 01:10:42;;;;;;;3.43;0.80;;;18.30;99.90;;;;;;5048227;28;20220;-71
2021/08/24 01:13:18;;;;;;;3.03;1.00;;;18.30;99.90;;;;;;5046398;28;20214;-71
2021/08/24 01:15:53;;;;;;;2.10;0.90;;;18.30;99.90;;;;;;5048796;28;20624;-71
2021/08/24 01:18:28;;;;;;;4.87;1.10;;;18.30;99.90;;;;;;5048381;28;20203;-71
2021/08/24 01:21:27;;;;;;;1.47;0.97;;;18.20;99.90;;;;;;5035649;28;20223;-71
2021/08/24 01:24:01;;;;;;;2.60;1.33;;;18.20;99.90;;;;;;5043583;28;20234;-71
2021/08/24 01:26:38;;;;;;;0.87;0.87;;;18.30;99.90;;;;;;5048409;28;20675;-71
2021/08/24 01:29:41;;;;;;;2.97;1.33;;;18.30;99.90;;;;;;5048440;28;20237;-71
2021/08/24 01:32:37;;;;;;;1.03;0.93;;;18.30;99.90;;;;;;5047205;28;20237;-71
2021/08/24 01:35:24;;;;;;;2.25;1.10;;;18.40;99.90;;;;;;5048377;28;20218;-71
2021/08/24 01:38:06;;;;;;;7.37;1.20;;;18.40;99.90;;;;;;5047284;28;20216;-71
2021/08/24 01:40:39;;;;;;;1.30;0.90;;;18.50;99.90;;;;;;5045527;28;20236;-71
2021/08/24 01:43:23;;;;;;;1.73;1.13;;;18.40;99.90;;;;;;5105251;27;20969;-70
2021/08/24 01:45:55;;;;;;;0.80;0.80;;;18.40;99.90;;;;;;5086922;28;20196;-70
2021/08/24 01:48:27;;;;;;;1.90;1.23;;;18.50;99.90;;;;;;5087165;28;20231;-71
2021/08/24 01:50:59;;;;;;;2.73;1.20;;;18.50;99.90;;;;;;5088041;28;20198;-70
2021/08/24 01:53:30;;;;;;;1.10;1.00;;;18.50;99.90;;;;;;5090860;28;20211;-70
2021/08/24 01:56:04;;;;;;;1.30;1.00;;;18.50;99.90;;;;;;5083026;28;20275;-71
2021/08/24 01:58:39;;;;;;;1.70;1.30;;;18.50;99.90;;;;;;5089983;28;20197;-70
2021/08/24 02:01:09;;;;;;;1.50;1.20;;;18.50;99.90;;;;;;5088294;28;20224;-70
2021/08/24 02:03:39;;;;;;;1.87;1.50;;;18.50;99.90;;;;;;5085489;28;20198;-71
2021/08/24 02:06:12;;;;;;;1.53;1.17;;;18.50;99.90;;;;;;5089501;28;20353;-70
2021/08/24 02:08:46;;;;;;;1.40;1.13;;;18.30;99.90;;;;;;5085190;28;20280;-70
2021/08/24 02:11:15;;;;;;;1.33;1.00;;;18.50;99.90;;;;;;5085699;28;20691;-70
2021/08/24 02:13:47;;;;;;;1.10;0.97;;;18.50;99.90;;;;;;5087916;28;20189;-71
2021/08/24 02:16:20;;;;;;;1.43;1.10;;;18.50;99.90;;;;;;5090707;28;20243;-70
2021/08/24 02:18:53;;;;;;;1.53;1.00;;;18.50;99.90;;;;;;5080428;28;20681;-71
2021/08/24 02:21:24;;;;;;;3.30;1.20;;;18.40;99.90;;;;;;5091625;28;20606;-71
2021/08/24 02:23:54;;;;;;;1.90;1.07;;;18.40;99.90;;;;;;5088662;28;20293;-70
2021/08/24 02:26:25;;;;;;;3.90;1.00;;;18.30;99.90;;;;;;5091788;28;20559;-71
2021/08/24 02:28:56;;;;;;;1.30;1.08;;;18.20;99.90;;;;;;5088519;28;20269;-71
2021/08/24 02:31:28;;;;;;;1.10;1.00;;;18.20;99.90;;;;;;5096696;28;20193;-71
2021/08/24 02:34:00;;;;;;;1.40;1.10;;;18.20;99.90;;;;;;5083091;28;20228;-71
2021/08/24 02:36:28;;;;;;;1.43;1.17;;;18.10;99.90;;;;;;5094701;28;20693;-71
2021/08/24 02:39:01;;;;;;;1.30;1.20;;;18.10;99.90;;;;;;5097175;28;20278;-71
2021/08/24 02:41:34;;;;;;;3.73;1.50;;;18.10;99.90;;;;;;5085109;28;20246;-71
2021/08/24 02:44:08;;;;;;;2.23;1.37;;;18.10;99.90;;;;;;5099774;28;20517;-71
2021/08/24 02:46:40;;;;;;;5.63;1.73;;;18.10;99.90;;;;;;5094600;28;20213;-71
2021/08/24 02:49:10;;;;;;;4.13;2.27;;;18.10;99.90;;;;;;5100084;28;20248;-71
2021/08/24 02:51:37;;;;;;;5.60;2.27;;;18.10;99.90;;;;;;5095279;28;20240;-71
2021/08/24 02:54:09;;;;;;;2.27;1.70;;;18.00;99.90;;;;;;5080375;28;20700;-70
2021/08/24 02:56:36;;;;;;;3.33;1.70;;;18.00;99.90;;;;;;5074922;28;20666;-71
2021/08/24 02:59:04;;;;;;;2.67;1.70;;;18.00;99.90;;;;;;5084188;28;20614;-70
2021/08/24 03:01:32;;;;;;;2.03;1.40;;;17.90;99.90;;;;;;5084235;28;20248;-71
2021/08/24 03:03:59;;;;;;;1.63;1.50;;;17.90;99.90;;;;;;5088017;28;20200;-71
2021/08/24 03:06:27;;;;;;;1.57;1.40;;;17.80;99.90;;;;;;5071528;28;20194;-71
2021/08/24 03:08:55;;;;;;;1.50;1.30;;;17.80;99.90;;;;;;5076109;28;20198;-70
2021/08/24 03:11:25;;;;;;;1.40;1.27;;;17.80;99.90;;;;;;5080225;28;20209;-71
2021/08/24 03:13:58;;;;;;;1.73;1.50;;;17.70;99.90;;;;;;5078360;28;20232;-70
2021/08/24 03:16:32;;;;;;;2.27;1.30;;;17.70;99.90;;;;;;5080474;28;20207;-70
2021/08/24 03:19:04;;;;;;;2.67;1.63;;;17.60;99.90;;;;;;5084087;28;20200;-71
2021/08/24 03:21:35;;;;;;;2.50;1.60;;;17.60;99.90;;;;;;5083747;28;20282;-71
2021/08/24 03:24:04;;;;;;;1.87;1.50;;;17.50;99.90;;;;;;5081499;28;20786;-71
2021/08/24 03:26:36;;;;;;;3.37;1.90;;;17.60;99.90;;;;;;5083468;28;20196;-70
2021/08/24 03:29:08;;;;;;;4.97;1.73;;;17.50;99.90;;;;;;5071276;28;20292;-71
2021/08/24 03:31:37;;;;;;;4.17;2.10;;;17.50;99.90;;;;;;5075633;28;20364;-71
2021/08/24 03:34:04;;;;;;;1.80;1.40;;;17.60;99.90;;;;;;5072415;28;20703;-71
2021/08/24 03:36:31;;;;;;;2.07;1.53;;;17.50;99.90;;;;;;5059121;28;20200;-71
2021/08/24 03:38:58;;;;;;;4.00;2.07;;;17.60;99.90;;;;;;5068183;28;20243;-71
2021/08/24 03:41:25;;;;;;;5.27;2.00;;;17.60;99.90;;;;;;5069690;28;20315;-71
2021/08/24 03:43:52;;;;;;;5.90;1.90;;;17.70;99.90;;;;;;5069404;28;20198;-71
2021/08/24 03:46:20;;;;;;;4.50;1.90;;;17.70;99.90;;;;;;5070348;28;20218;-71
2021/08/24 03:48:48;;;;;;;6.17;1.97;;;17.80;99.90;;;;;;5069524;28;20204;-71
2021/08/24 03:51:15;;;;;;;3.97;1.50;;;17.80;99.90;;;;;;5067057;28;20209;-71
2021/08/24 03:53:42;;;;;;;4.00;1.97;;;17.80;99.90;;;;;;5069728;28;20193;-71
2021/08/24 03:56:09;;;;;;;5.77;1.90;;;17.80;99.90;;;;;;5067665;28;20223;-71
2021/08/24 03:58:37;;;;;;;3.53;1.83;;;17.80;99.90;;;;;;5069637;28;20206;-71
2021/08/24 04:01:10;;;;;;;3.40;1.80;;;17.90;99.90;;;;;;5061443;28;20202;-71
2021/08/24 04:03:37;;;;;;;3.37;1.60;;;17.90;99.90;;;;;;5072052;28;20277;-71
2021/08/24 04:06:05;;;;;;;3.40;1.60;;;18.00;99.90;;;;;;5069762;28;20262;-71
2021/08/24 04:08:32;;;;;;;2.53;1.40;;;18.00;99.90;;;;;;5074001;28;20198;-71
2021/08/24 04:11:02;;;;;;;2.93;1.20;;;18.00;99.90;;;;;;5068769;28;20193;-71
2021/08/24 04:13:29;;;;;;;4.07;1.60;;;18.00;99.90;;;;;;5070366;28;20189;-71
2021/08/24 04:15:56;;;;;;;1.50;1.40;;;18.10;99.90;;;;;;5063964;28;20199;-71
2021/08/24 04:18:23;;;;;;;1.60;1.50;;;18.10;99.90;;;;;;5067624;28;20255;-71
2021/08/24 04:20:50;;;;;;;1.50;1.40;;;18.10;99.90;;;;;;5069909;28;20302;-71
2021/08/24 04:23:24;;;;;;;2.17;1.80;;;18.10;99.90;;;;;;5071292;28;20834;-71
2021/08/24 04:25:51;;;;;;;2.70;1.40;;;18.10;99.90;;;;;;5068891;28;20224;-71
2021/08/24 04:28:18;;;;;;;2.50;1.60;;;18.10;99.90;;;;;;5072043;28;20189;-71
2021/08/24 04:30:45;;;;;;;2.10;1.40;;;18.20;99.90;;;;;;5070592;28;20609;-71
2021/08/24 04:33:12;;;;;;;2.17;1.77;;;18.20;99.90;;;;;;5072527;28;20195;-71
2021/08/24 04:35:39;;;;;;;2.03;1.60;;;18.20;99.90;;;;;;5055329;28;20268;-71
2021/08/24 04:38:06;;;;;;;2.13;1.60;;;18.30;99.90;;;;;;5068294;28;20202;-71
2021/08/24 04:40:34;;;;;;;2.00;1.90;;;18.30;99.90;;;;;;5080449;28;20579;-71
2021/08/24 04:43:01;;;;;;;1.60;1.50;;;18.40;99.90;;;;;;5079489;28;20566;-71
2021/08/24 04:45:28;;;;;;;1.80;1.70;;;18.40;99.90;;;;;;5069319;28;20238;-71
2021/08/24 04:47:54;;;;;;;1.30;1.20;;;18.50;99.90;;;;;;5069479;28;20209;-71
2021/08/24 04:50:21;;;;;;;1.50;1.40;;;18.50;99.90;;;;;;5071804;28;20711;-71
2021/08/24 04:52:48;;;;;;;1.73;1.40;;;18.60;99.90;;;;;;5070636;28;20194;-70
2021/08/24 04:55:15;;;;;;;2.30;1.67;;;18.60;99.90;;;;;;5067850;28;20343;-71
2021/08/24 04:57:44;;;;;;;1.80;1.53;;;18.60;99.90;;;;;;5070356;28;20195;-71
2021/08/24 05:00:12;;;;;;;1.80;1.43;;;18.70;99.90;;;;;;5070810;28;20259;-72
2021/08/24 05:02:39;;;;;;;1.90;1.60;;;18.70;99.90;;;;;;5102664;27;20629;-71
2021/08/24 05:05:07;;;;;;;2.07;1.20;;;18.80;99.90;;;;;;5072198;28;20210;-71
2021/08/24 05:07:34;;;;;;;2.50;1.50;;;18.70;99.90;;;;;;5072903;28;20194;-71
2021/08/24 05:10:03;;;;;;;2.50;1.67;;;18.70;99.90;;;;;;5070624;28;20555;-71
2021/08/24 05:12:30;;;;;;;1.80;1.60;;;18.70;99.90;;;;;;5070348;28;20204;-71
2021/08/24 05:14:58;;;;;;;3.37;1.60;;;18.70;99.90;;;;;;5074554;28;20201;-71
2021/08/24 05:17:25;;;;;;;3.70;1.90;;;18.70;99.80;;;;;;5074840;28;20571;-71
2021/08/24 05:19:52;;;;;;;5.18;1.65;;;18.70;99.30;;;;;;5075708;28;20201;-71
2021/08/24 05:22:19;;;;;;;2.60;1.60;;;18.70;98.90;;;;;;5076679;28;20276;-71
2021/08/24 05:24:46;;;;;;;4.60;1.93;;;18.70;98.60;;;;;;5075254;28;20206;-71
2021/08/24 05:27:13;;;;;;;3.77;1.93;;;18.80;98.60;;;;;;5068166;28;20678;-71
2021/08/24 05:29:40;;;;;;;4.50;1.50;;;18.80;98.50;;;;;;5075727;28;20329;-71
2021/08/24 05:32:09;;;;;;;7.30;2.23;;;18.80;98.40;;;;;;5073724;28;20259;-71
2021/08/24 05:34:36;;;;;;;3.50;2.10;;;18.90;98.30;;;;;;5074128;28;20203;-71
2021/08/24 05:37:03;;;;;;;3.70;2.03;;;18.90;98.10;;;;;;5068317;28;20194;-71
2021/08/24 05:39:30;;;;;;;3.47;2.08;;;18.80;97.70;;;;;;5066364;28;20199;-71
2021/08/24 05:41:57;;;;;;;3.10;1.70;;;18.80;97.60;;;;;;5066721;28;20231;-71
2021/08/24 05:44:24;;;;;;;4.45;2.20;;;18.80;97.80;;;;;;5066072;28;20294;-71
2021/08/24 05:46:51;;;;;;;3.13;2.20;;;18.80;97.40;;;;;;5068125;28;20212;-71
2021/08/24 05:49:19;;;;;;;5.30;2.07;;;18.80;97.20;;;;;;5067477;28;20196;-71
2021/08/24 05:51:46;;;;;;;3.72;1.85;;;18.80;96.90;;;;;;5066261;28;20208;-71
2021/08/24 05:54:13;;;;;;;4.17;2.23;;;18.80;96.80;;;;;;5058452;28;20896;-71
2021/08/24 05:56:43;;;;;;;4.33;2.00;;;19.00;96.90;;;;;;5067267;28;20530;-71
2021/08/24 05:59:10;;;;;;;4.90;2.35;;;19.20;96.10;;;;;;5065039;28;20673;-71
2021/08/24 06:01:36;;;;;;;4.22;2.25;;;19.20;95.40;;;;;;5067676;28;20200;-71
2021/08/24 06:04:04;;;;;;;4.15;2.00;;;19.20;94.80;;;;;;5066476;28;20241;-71
2021/08/24 06:06:35;;;;;;;2.45;2.20;;;19.20;94.90;;;;;;5068334;28;20225;-71
2021/08/24 06:09:03;;;;;;;7.37;2.57;;;19.20;95.20;;;;;;5059116;28;20604;-73
2021/08/24 06:11:32;;;;;;;4.55;2.40;;;19.10;95.20;;;;;;5060473;28;20607;-74
2021/08/24 06:14:02;;;;;;;7.15;2.55;;;19.10;95.60;;;;;;5063691;28;20281;-74
2021/08/24 06:16:29;;;;;;;7.85;2.53;;;19.00;95.70;;;;;;5060282;28;20399;-74
2021/08/24 06:18:56;;;;;;;7.72;2.67;;;19.00;95.70;;;;;;5062522;28;20299;-74
2021/08/24 06:21:23;;;;;;;9.60;2.57;;;18.80;95.80;;;;;;5063660;28;20207;-73
2021/08/24 06:23:53;;;;;;;11.45;2.78;;;18.80;96.10;;;;;;5096507;28;20317;-73
2021/08/24 06:26:20;;;;;;;14.23;2.45;;;19.00;95.70;;;;;;5062594;28;20205;-73
2021/08/24 06:28:48;;;;;;;11.38;2.53;;;19.50;95.00;;;;;;5065305;28;20731;-73
2021/08/24 06:31:17;;;;;;;18.05;3.20;;;20.10;94.50;;;;;;5067585;28;20193;-74
2021/08/24 06:33:45;;;;;;;9.60;2.95;;;21.10;91.80;;;;;;5059517;28;20205;-74
2021/08/24 06:36:14;;;;;;;9.18;2.53;;;21.60;89.30;;;;;;5066536;28;20247;-73
2021/08/24 06:38:42;;;;;;;3.40;2.30;;;21.70;87.90;;;;;;5063659;28;20207;-72
2021/08/24 06:41:10;;;;;;;6.38;2.35;;;22.10;87.30;;;;;;5065104;28;20239;-72
2021/08/24 06:43:38;;;;;;;10.30;3.05;;;23.20;84.60;;;;;;5068335;28;20217;-73
2021/08/24 06:46:05;;;;;;;9.63;2.90;;;24.80;79.20;;;;;;5068007;28;20203;-76
2021/08/24 06:48:32;;;;;;;13.55;3.05;;;25.70;70.90;;;;;;5067903;28;20201;-78
2021/08/24 06:50:59;;;;;;;9.57;3.20;;;25.10;67.70;;;;;;5066749;28;20193;-73
2021/08/24 06:53:26;;;;;;;9.98;2.90;;;24.10;68.70;;;;;;5064695;28;20592;-73
2021/08/24 06:55:54;;;;;;;7.40;2.60;;;23.10;71.60;;;;;;5065090;28;20287;-74
2021/08/24 06:58:22;;;;;;;7.35;2.10;;;22.40;74.40;;;;;;5067387;28;20211;-72
2021/08/24 07:00:50;;;;;;;6.55;2.35;;;21.80;76.50;;;;;;5063048;28;20650;-72
2021/08/24 07:03:18;;;;;;;8.85;2.58;;;21.40;78.30;;;;;;5066369;28;20202;-72
2021/08/24 07:05:46;;;;;;;7.88;2.40;;;21.10;80.10;;;;;;5067114;28;20197;-72
2021/08/24 07:08:13;;;;;;;14.57;2.00;;;20.70;81.60;;;;;;5067639;28;20724;-72
2021/08/24 07:10:40;;;;;;;10.55;2.40;;;20.50;83.10;;;;;;5063626;28;20189;-71
2021/08/24 07:13:08;;;;;;;10.13;3.08;;;20.40;84.40;;;;;;5066388;28;20637;-74
2021/08/24 07:15:36;;;;;;;3.85;2.45;;;20.30;85.10;;;;;;5067619;28;20292;-73
2021/08/24 07:18:06;;;;;;;9.13;2.00;;;20.40;84.80;;;;;;5066918;28;20619;-72
2021/08/24 07:20:32;;;;;;;10.70;2.20;;;20.50;84.40;;;;;;5065460;28;20270;-74
2021/08/24 07:23:01;;;;;;;6.15;2.63;;;20.80;83.80;;;;;;5065683;28;20291;-73
2021/08/24 07:25:31;;;;;;;11.32;3.30;;;21.30;80.80;;;;;;5066489;28;20205;-73
2021/08/24 07:27:58;;;;;;;9.13;2.50;;;21.40;79.80;;;;;;5065833;28;20201;-73
2021/08/24 07:30:25;;;;;;;11.75;2.25;;;21.30;78.60;;;;;;5065878;28;20197;-73
2021/08/24 07:32:54;;;;;;;13.07;2.42;;;21.20;77.80;;;;;;5067075;28;20507;-73
2021/08/24 07:35:21;;;;;;;7.63;2.45;;;21.20;77.80;;;;;;5064725;28;20568;-73
2021/08/24 07:37:48;;;;;;;8.55;2.72;;;21.70;78.70;;;;;;5065609;28;20286;-72
2021/08/24 07:40:15;;;;;;;6.97;2.30;;;23.00;76.60;;;;;;5065344;28;20204;-72
2021/08/24 07:42:42;;;;;;;7.03;2.72;;;24.90;71.60;;;;;;5066820;28;20232;-72
2021/08/24 07:45:09;;;;;;;4.15;2.10;;;25.70;66.60;;;;;;5068806;28;20262;-72
2021/08/24 07:47:36;;;;;;;5.68;2.38;;;26.10;64.20;;;;;;5064817;28;20201;-72
2021/08/24 07:50:06;;;;;;;8.27;2.50;;;27.10;60.60;;;;;;5069335;28;20213;-73
2021/08/24 07:52:33;;;;;;;11.10;2.38;;;27.80;57.40;;;;;;5066766;28;20201;-72
2021/08/24 07:55:00;;;;;;;14.50;2.30;;;27.50;56.10;;;;;;5067349;28;20224;-72
2021/08/24 07:57:27;;;;;;;5.90;2.10;;;26.60;56.40;;;;;;5068594;28;20653;-71
2021/08/24 07:59:54;;;;;;;5.88;1.95;;;26.10;55.70;;;;;;5069118;28;20669;-72
2021/08/24 08:02:21;;;;;;;11.82;2.10;;;25.60;56.70;;;;;;5070315;28;20212;-72
2021/08/24 08:04:48;;;;;;;11.98;2.42;;;26.80;55.40;;;;;;5068341;28;20217;-72
2021/08/24 08:07:16;;;;;;;4.88;2.45;;;27.40;53.70;;;;;;5069899;28;20193;-72
2021/08/24 08:09:44;;;;;;;6.93;2.30;;;28.10;52.50;;;;;;5066565;28;20216;-72
2021/08/24 08:12:11;;;;;;;11.18;2.38;;;28.30;51.20;;;;;;5057051;28;20282;-73
2021/08/24 08:14:39;;;;;;;4.40;2.00;;;28.90;50.50;;;;;;5068784;28;20207;-72
2021/08/24 08:17:10;;;;;;;10.93;2.13;;;29.30;49.10;;;;;;5072622;28;20692;-73
2021/08/24 08:19:37;;;;;;;12.45;2.40;;;29.00;48.30;;;;;;5100968;27;20193;-72
2021/08/24 08:22:04;;;;;;;15.65;2.50;;;29.40;47.40;;;;;;5069970;28;20478;-71
2021/08/24 08:24:32;;;;;;;11.73;2.47;;;30.30;46.60;;;;;;5065193;28;20586;-72
2021/08/24 08:27:00;;;;;;;8.75;2.20;;;30.70;44.70;;;;;;5068249;28;20225;-72
2021/08/24 08:29:27;;;;;;;11.90;2.35;;;31.50;44.00;;;;;;5067901;28;20242;-72
2021/08/24 08:31:57;;;;;;;6.43;2.72;;;32.10;42.80;;;;;;5067409;28;20193;-72
2021/08/24 08:34:24;;;;;;;10.88;2.50;;;31.90;41.30;;;;;;5069981;28;20549;-72
2021/08/24 08:36:52;;;;;;;10.00;2.40;;;31.30;41.50;;;;;;5066584;28;20205;-72
2021/08/24 08:39:20;;;;;;;5.03;2.70;;;32.00;42.40;;;;;;5064914;28;20209;-72
2021/08/24 08:42:09;;;;;;;3.40;1.80;;;33.00;39.80;;;;;;5066117;28;20237;-72
2021/08/24 08:44:44;;;;;;;3.25;2.20;;;33.20;39.20;;;;;;5065808;28;20221;-72
2021/08/24 08:47:30;;;;;;;7.68;2.75;;;32.30;39.40;;;;;;5070940;28;20210;-72
2021/08/24 08:50:02;;;;;;;3.22;2.17;;;31.60;39.90;;;;;;5059289;28;20197;-72
2021/08/24 08:52:34;;;;;;;12.48;2.80;;;30.80;41.10;;;;;;5067276;28;20734;-72
2021/08/24 08:55:11;;;;;;;20.08;2.70;;;29.60;41.50;;;;;;5068509;28;20197;-72
2021/08/24 08:57:45;;;;;;;6.47;2.38;;;28.60;42.90;;;;;;5065032;28;20310;-72
2021/08/24 09:00:17;;;;;;;8.02;2.50;;;28.50;43.50;;;;;;5070966;28;20204;-73
2021/08/24 09:02:50;;;;;;;3.58;2.53;;;28.20;43.50;;;;;;5066275;28;20212;-72
2021/08/24 09:05:20;;;;;;;5.60;2.20;;;27.50;44.30;;;;;;5070339;28;20739;-72
2021/08/24 09:07:50;;;;;;;10.05;2.60;;;26.90;45.60;;;;;;5065919;28;20205;-72
2021/08/24 09:10:20;;;;;;;5.32;2.45;;;26.20;46.20;;;;;;5069910;28;20697;-72
2021/08/24 09:12:54;;;;;;;12.23;2.72;;;25.60;47.30;;;;;;5067981;28;20291;-72
2021/08/24 09:15:31;;;;;;;9.48;2.63;;;25.10;48.30;;;;;;5063481;28;20703;-73
2021/08/24 09:17:57;;;;;;;9.95;2.70;;;24.70;48.90;;;;;;5066766;28;20557;-72
2021/08/24 09:20:30;;;;;;;6.68;2.47;;;24.40;49.50;;;;;;5069954;28;20204;-72
2021/08/24 09:22:58;;;;;;;5.55;2.13;;;24.00;49.80;;;;;;5064773;28;20208;-72
2021/08/24 09:25:35;;;;;;;5.85;2.70;;;24.60;50.10;;;;;;5063563;28;20205;-72
2021/08/24 09:28:08;;;;;;;8.68;2.58;;;25.80;48.50;;;;;;5065331;28;20196;-73
2021/08/24 09:30:38;;;;;;;6.80;2.65;;;26.60;47.10;;;;;;5064910;28;20246;-70
2021/08/24 09:33:07;;;;;;;5.63;2.58;;;28.80;44.40;;;;;;5061067;28;20208;-73
2021/08/24 09:35:36;;;;;;;6.15;2.70;;;30.80;40.60;;;;;;5065620;28;20608;-73
2021/08/24 09:38:12;;;;;;;7.25;2.47;;;31.90;38.70;;;;;;5065591;28;20200;-72
2021/08/24 09:40:43;;;;;;;6.80;2.70;;;33.10;37.20;;;;;;5066479;28;20682;-74
2021/08/24 09:43:30;;;;;;;10.90;2.90;;;34.80;35.40;;;;;;5066213;28;20248;-74
2021/08/24 09:46:04;;;;;;;7.82;2.85;;;35.60;33.60;;;;;;5066324;28;20193;-73
2021/08/24 09:48:46;;;;;;;12.85;3.42;;;36.00;32.70;;;;;;5062699;28;20274;-73
2021/08/24 09:51:41;;;;;;;11.82;3.50;;;36.50;32.40;;;;;;5063523;28;20406;-74
2021/08/24 09:54:24;;;;;;;11.65;3.40;;;36.70;31.90;;;;;;5065960;28;20312;-73
2021/08/24 09:56:54;;;;;;;9.82;3.58;;;36.00;32.20;;;;;;5066083;28;20280;-73
2021/08/24 09:59:27;;;;;;;11.75;3.80;;;34.90;33.80;;;;;;5067525;28;20243;-73
2021/08/24 10:01:54;;;;;;;6.53;3.20;;;33.00;34.90;;;;;;5063443;28;20619;-73
2021/08/24 10:04:21;;;;;;;15.88;3.75;;;32.30;36.00;;;;;;5071387;28;20662;-73
2021/08/24 10:06:59;;;;;;;17.90;3.95;;;31.80;36.40;;;;;;5071542;28;20661;-73
2021/08/24 10:09:29;;;;;;;10.98;3.38;;;30.70;37.40;;;;;;5063626;28;20208;-73
2021/08/24 10:12:15;;;;;;;10.02;3.38;;;29.50;38.70;;;;;;5070299;28;20201;-74
2021/08/24 10:14:43;;;;;;;12.60;3.03;;;28.10;40.30;;;;;;5072916;28;20193;-73
2021/08/24 10:17:24;;;;;;;14.27;2.75;;;27.10;41.30;;;;;;5076495;28;20201;-74
2021/08/24 10:19:52;;;;;;;11.60;2.60;;;26.00;42.60;;;;;;5069344;28;20634;-73
2021/08/24 10:22:27;;;;;;;11.48;3.00;;;25.30;43.90;;;;;;5071816;28;20505;-72
2021/08/24 10:24:57;;;;;;;9.90;2.95;;;25.10;44.60;;;;;;5065346;28;20216;-72
2021/08/24 10:27:27;;;;;;;13.95;3.42;;;25.70;44.10;;;;;;5067920;28;20680;-72
2021/08/24 10:29:58;;;;;;;12.70;2.90;;;26.50;42.60;;;;;;5068639;28;20232;-72
2021/08/24 10:32:30;;;;;;;11.50;3.03;;;26.60;41.80;;;;;;5061953;28;20206;-73
2021/08/24 10:35:00;;;;;;;4.82;2.40;;;27.90;40.70;;;;;;5061714;28;20193;-73
2021/08/24 10:37:42;;;;;;;7.75;3.10;;;29.70;38.80;;;;;;5068154;28;20298;-73
2021/08/24 10:40:24;;;;;;;8.10;3.72;;;31.40;36.70;;;;;;5066400;28;20282;-73
2021/08/24 10:43:14;;;;;;;9.95;3.22;;;32.30;35.00;;;;;;5071326;28;20221;-73
2021/08/24 10:45:46;;;;;;;10.20;3.38;;;32.10;34.30;;;;;;5065803;28;20236;-73
2021/08/24 10:48:17;;;;;;;9.05;3.00;;;32.70;34.20;;;;;;5062555;28;20221;-74
2021/08/24 10:50:50;;;;;;;10.70;2.97;;;33.00;33.50;;;;;;5070180;28;20873;-74
2021/08/24 10:53:31;;;;;;;10.95;4.20;;;32.70;33.60;;;;;;5066697;28;20699;-73
2021/08/24 10:56:06;;;;;;;16.27;3.80;;;31.70;34.60;;;;;;5071696;28;20595;-73
2021/08/24 10:58:37;;;;;;;11.80;3.22;;;32.10;34.40;;;;;;5067880;28;20250;-74
2021/08/24 11:01:10;;;;;;;9.55;3.40;;;33.10;32.90;;;;;;5067385;28;20262;-73
2021/08/24 11:03:59;;;;;;;8.23;3.85;;;34.10;31.90;;;;;;5069933;28;20209;-74
2021/08/24 11:06:32;;;;;;;9.60;3.72;;;34.20;30.90;;;;;;5071156;28;20244;-74
2021/08/24 11:09:13;;;;;;;5.85;3.22;;;32.90;31.60;;;;;;5068492;28;20254;-72
2021/08/24 11:11:51;;;;;;;9.30;4.18;;;31.50;32.70;;;;;;5068914;28;20201;-72
2021/08/24 11:14:31;;;;;;;12.02;4.20;;;30.80;33.60;;;;;;5065225;28;20181;-73
2021/08/24 11:17:07;;;;;;;10.55;3.78;;;30.90;33.60;;;;;;5074322;28;20193;-72
2021/08/24 11:19:55;;;;;;;10.18;3.70;;;31.00;34.00;;;;;;5067547;28;20266;-73
2021/08/24 11:22:27;;;;;;;8.45;3.75;;;31.90;33.50;;;;;;5059295;28;20676;-72
2021/08/24 11:25:04;;;;;;;10.57;3.88;;;31.90;33.20;;;;;;5064439;28;20213;-73
2021/08/24 11:27:41;;;;;;;12.90;3.45;;;31.90;33.00;;;;;;5067160;28;20611;-73
2021/08/24 11:30:19;;;;;;;15.45;3.65;;;31.00;33.50;;;;;;5066914;28;21388;-72
2021/08/24 11:32:54;;;;;;;12.23;3.65;;;29.70;34.60;;;;;;5067089;28;20230;-68
2021/08/24 11:35:23;;;;;;;13.95;3.38;;;29.10;36.70;;;;;;5067621;28;20561;-72
2021/08/24 11:37:53;;;;;;;20.60;3.92;;;28.00;38.20;;;;;;5069697;28;20212;-71
2021/08/24 11:40:25;;;;;;;14.35;3.47;;;27.10;40.20;;;;;;5069656;28;20229;-71
2021/08/24 11:42:56;;;;;;;11.93;3.83;;;26.20;41.70;;;;;;5065177;28;20318;-71
2021/08/24 11:45:26;;;;;;;5.80;3.53;;;26.10;42.60;;;;;;5068718;28;20225;-71
2021/08/24 11:48:01;;;;;;;10.10;3.35;;;25.80;43.00;;;;;;5069763;28;20238;-71
2021/08/24 11:50:46;;;;;;;12.60;4.00;;;25.40;43.30;;;;;;5065428;28;20316;-71
2021/08/24 11:53:20;;;;;;;5.35;3.28;;;26.10;43.00;;;;;;5068530;28;20205;-71
2021/08/24 11:55:56;;;;;;;5.43;3.33;;;26.80;41.90;;;;;;5099557;28;20323;-67
2021/08/24 11:58:30;;;;;;;11.82;3.50;;;26.60;41.60;;;;;;5060708;28;20189;-70
2021/08/24 12:00:59;;;;;;;7.55;3.38;;;25.60;42.40;;;;;;5067471;28;20315;-69
2021/08/24 12:03:28;;;;;;;6.80;3.30;;;24.70;43.80;;;;;;5064469;28;20193;-68
2021/08/24 12:06:03;;;;;;;5.55;2.90;;;24.00;44.80;;;;;;5067342;28;20224;-68
2021/08/24 12:08:33;;;;;;;6.25;3.63;;;23.60;45.70;;;;;;5068193;28;20299;-67
2021/08/24 12:11:05;;;;;;;6.85;3.22;;;23.30;46.10;;;;;;5065037;28;20634;-67
2021/08/24 12:13:35;;;;;;;6.45;3.53;;;22.90;46.30;;;;;;5068177;28;20239;-68
2021/08/24 12:16:20;;;;;;;8.05;3.30;;;22.70;46.50;;;;;;5068823;28;20197;-68
2021/08/24 12:18:49;;;;;;;6.50;3.50;;;22.50;47.00;;;;;;5066263;28;20229;-68
2021/08/24 12:21:30;;;;;;;7.78;3.35;;;22.40;48.00;;;;;;5066083;28;20201;-70
2021/08/24 12:23:58;;;;;;;9.95;3.67;;;22.30;48.30;;;;;;5064048;28;20201;-70
2021/08/24 12:26:32;;;;;;;7.03;3.53;;;22.20;49.10;;;;;;5064388;28;20217;-70
2021/08/24 12:29:02;;;;;;;10.15;3.60;;;21.90;50.10;;;;;;5065918;28;20197;-70
2021/08/24 12:31:50;;;;;;;17.35;3.88;;;21.60;51.30;;;;;;5069554;28;20565;-70
2021/08/24 12:34:56;;;;;;;9.88;3.58;;;21.30;52.00;;;;;;5037766;28;20209;-71
2021/08/24 12:37:54;;;;;;;8.93;3.55;;;21.10;53.10;;;;;;5039186;28;20740;-70
2021/08/24 12:40:37;;;;;;;9.30;3.45;;;21.00;53.10;;;;;;5045810;28;20699;-70
2021/08/24 12:43:36;;;;;;;11.95;3.20;;;20.80;53.20;;;;;;5045153;28;20233;-70
2021/08/24 12:46:26;;;;;;;13.48;3.53;;;20.70;53.70;;;;;;5020693;28;20637;-70
2021/08/24 12:49:29;;;;;;;22.13;3.40;;;20.60;54.10;;;;;;5046280;28;20230;-70
2021/08/24 12:51:59;;;;;;;10.13;3.40;;;20.50;54.30;;;;;;5040524;28;20501;-69
2021/08/24 12:54:43;;;;;;;14.25;3.45;;;20.50;54.30;;;;;;5044031;28;20212;-70
2021/08/24 12:57:15;;;;;;;15.75;3.95;;;20.40;54.10;;;;;;5043636;28;20297;-69
2021/08/24 12:59:44;;;;;;;15.98;3.28;;;20.30;54.60;;;;;;5045454;28;20561;-70
2021/08/24 13:02:26;;;;;;;10.55;3.67;;;20.30;54.90;;;;;;5024812;28;20241;-71
2021/08/24 13:04:56;;;;;;;11.48;4.35;;;20.40;55.10;;;;;;5042870;28;20234;-70
2021/08/24 13:07:35;;;;;;;5.90;3.45;;;20.50;54.90;;;;;;5032114;28;20742;-71